createdAt,value
2023-03-10T00:01:33.416Z,14.50
2023-03-10T00:04:03.025Z,14.81
2023-03-10T00:06:34.960Z,13.97
2023-03-10T00:09:03.083Z,14.09
2023-03-10T00:11:30.614Z,13.58
2023-03-10T00:13:57.773Z,13.99
2023-03-10T00:16:29.192Z,14.13
2023-03-10T00:18:57.850Z,13.49
2023-03-10T00:21:30.565Z,14.17
2023-03-10T00:24:01.964Z,14.71
2023-03-10T00:26:31.181Z,13.89
2023-03-10T00:28:58.355Z,14.78
2023-03-10T00:31:28.630Z,15.30
2023-03-10T00:33:57.105Z,14.07
2023-03-10T00:36:28.097Z,14.33
2023-03-10T00:39:01.030Z,13.60
2023-03-10T00:41:31.816Z,15.07
2023-03-10T00:44:01.058Z,13.58
2023-03-10T00:46:30.549Z,13.09
2023-03-10T00:48:57.776Z,13.47
2023-03-10T00:51:25.412Z,14.32
2023-03-10T00:53:52.776Z,14.05
2023-03-10T00:56:23.978Z,14.01
2023-03-10T00:58:57.866Z,13.85
2023-03-10T01:01:26.567Z,14.64
2023-03-10T01:03:57.899Z,13.93
2023-03-10T01:06:26.371Z,14.40
2023-03-10T01:08:54.121Z,14.34
2023-03-10T01:11:27.137Z,13.62
2023-03-10T01:13:58.250Z,14.21
2023-03-10T01:16:26.728Z,13.55
2023-03-10T01:18:54.007Z,14.51
2023-03-10T01:21:33.673Z,14.57
2023-03-10T01:24:02.155Z,14.46
2023-03-10T01:26:30.564Z,13.38
2023-03-10T01:28:57.937Z,13.85
2023-03-10T01:31:25.332Z,14.44
2023-03-10T01:33:52.518Z,13.79
2023-03-10T01:36:26.271Z,13.37
2023-03-10T01:38:55.717Z,14.15
2023-03-10T01:41:23.531Z,15.17
2023-03-10T01:43:57.143Z,13.50
2023-03-10T01:46:55.150Z,13.73
2023-03-10T01:49:38.216Z,13.56
2023-03-10T01:52:21.803Z,14.25
2023-03-10T01:55:09.887Z,15.56
2023-03-10T01:57:50.507Z,13.84
2023-03-10T02:00:21.252Z,13.62
2023-03-10T02:02:54.716Z,13.55
2023-03-10T02:05:22.861Z,13.61
2023-03-10T02:07:52.185Z,13.28
2023-03-10T02:10:20.397Z,13.02
2023-03-10T02:12:47.741Z,13.49
2023-03-10T02:15:15.149Z,13.39
2023-03-10T02:17:44.947Z,14.14
2023-03-10T02:20:42.325Z,14.22
2023-03-10T02:23:16.708Z,14.56
2023-03-10T02:25:54.293Z,13.80
2023-03-10T02:28:21.736Z,13.86
2023-03-10T02:30:52.889Z,13.81
2023-03-10T02:33:29.537Z,13.88
2023-03-10T02:36:17.662Z,13.54
2023-03-10T02:38:44.874Z,14.70
2023-03-10T02:41:39.720Z,14.31
2023-03-10T02:44:12.164Z,13.99
2023-03-10T02:46:40.347Z,13.63
2023-03-10T02:49:12.714Z,13.76
2023-03-10T02:51:46.823Z,13.68
2023-03-10T02:54:15.701Z,14.02
2023-03-10T02:56:45.707Z,14.18
2023-03-10T02:59:13.319Z,14.47
2023-03-10T03:01:40.927Z,15.77
2023-03-10T03:04:08.516Z,15.30
2023-03-10T03:06:36.084Z,15.04
2023-03-10T03:09:04.361Z,15.72
2023-03-10T03:11:34.571Z,16.69
2023-03-10T03:14:01.861Z,16.52
2023-03-10T03:16:29.042Z,16.58
2023-03-10T03:18:56.484Z,15.71
2023-03-10T03:21:24.421Z,15.22
2023-03-10T03:23:53.264Z,14.28
2023-03-10T03:26:25.419Z,14.76
2023-03-10T03:28:53.553Z,14.79
2023-03-10T03:31:26.152Z,14.66
2023-03-10T03:33:54.409Z,14.64
2023-03-10T03:36:21.551Z,14.78
2023-03-10T03:38:48.855Z,14.83
2023-03-10T03:41:16.310Z,15.37
2023-03-10T03:43:44.262Z,14.70
2023-03-10T03:46:11.407Z,14.73
2023-03-10T03:48:38.817Z,16.05
2023-03-10T03:51:06.296Z,16.82
2023-03-10T03:53:36.167Z,16.96
2023-03-10T03:56:03.726Z,16.35
2023-03-10T03:58:31.165Z,16.61
2023-03-10T04:00:59.497Z,16.72
2023-03-10T04:03:26.787Z,16.72
2023-03-10T04:05:54.152Z,15.60
2023-03-10T04:08:21.410Z,15.15
2023-03-10T04:10:55.287Z,15.25
2023-03-10T04:13:25.466Z,14.52
2023-03-10T04:16:00.567Z,13.91
2023-03-10T04:18:28.482Z,13.26
2023-03-10T04:20:56.371Z,14.02
2023-03-10T04:23:24.126Z,13.22
2023-03-10T04:25:51.414Z,14.09
2023-03-10T04:28:20.307Z,14.15
2023-03-10T04:30:47.875Z,15.07
2023-03-10T04:33:15.104Z,14.50
2023-03-10T04:35:44.683Z,16.59
2023-03-10T04:38:13.639Z,16.78
2023-03-10T04:40:40.798Z,16.22
2023-03-10T04:43:09.268Z,14.76
2023-03-10T04:45:38.052Z,14.28
2023-03-10T04:48:06.464Z,14.93
2023-03-10T04:50:34.586Z,14.50
2023-03-10T04:53:01.782Z,13.98
2023-03-10T04:55:29.183Z,13.95
2023-03-10T04:57:56.751Z,13.62
2023-03-10T05:00:24.392Z,13.84
2023-03-10T05:02:51.658Z,13.79
2023-03-10T05:05:18.932Z,13.22
2023-03-10T05:07:47.081Z,13.02
2023-03-10T05:10:14.443Z,13.11
2023-03-10T05:12:42.482Z,13.78
2023-03-10T05:15:11.431Z,12.84
2023-03-10T05:17:38.782Z,13.73
2023-03-10T05:20:10.544Z,13.36
2023-03-10T05:22:39.172Z,14.01
2023-03-10T05:25:08.280Z,13.89
2023-03-10T05:27:37.371Z,13.04
2023-03-10T05:30:08.271Z,12.98
2023-03-10T05:32:37.859Z,13.90
2023-03-10T05:35:05.768Z,13.02
2023-03-10T05:37:39.573Z,13.63
2023-03-10T05:40:14.804Z,13.30
2023-03-10T05:42:42.488Z,12.96
2023-03-10T05:45:12.572Z,12.84
2023-03-10T05:47:40.213Z,12.82
2023-03-10T05:50:11.088Z,12.90
2023-03-10T05:52:44.308Z,13.21
2023-03-10T05:55:18.263Z,12.93
2023-03-10T05:57:46.284Z,12.83
2023-03-10T06:00:17.085Z,12.57
2023-03-10T06:02:44.425Z,13.11
2023-03-10T06:05:13.726Z,12.85
2023-03-10T06:07:42.051Z,12.72
2023-03-10T06:10:10.535Z,13.19
2023-03-10T06:12:38.210Z,13.16
2023-03-10T06:15:06.503Z,12.73
2023-03-10T06:17:33.776Z,12.92
2023-03-10T06:20:02.082Z,12.67
2023-03-10T06:22:31.268Z,12.72
2023-03-10T06:24:58.912Z,12.45
2023-03-10T06:27:26.266Z,12.59
2023-03-10T06:29:53.744Z,12.76
2023-03-10T06:32:20.870Z,12.93
2023-03-10T06:34:48.580Z,12.94
2023-03-10T06:37:15.886Z,12.97
2023-03-10T06:39:43.452Z,12.79
2023-03-10T06:42:10.666Z,12.60
2023-03-10T06:44:38.051Z,12.50
2023-03-10T06:47:05.732Z,12.52
2023-03-10T06:49:33.925Z,12.78
2023-03-10T06:52:01.607Z,12.68
2023-03-10T06:54:28.847Z,12.93
2023-03-10T06:56:56.116Z,12.86
2023-03-10T06:59:23.846Z,13.05
2023-03-10T07:01:55.047Z,13.19
2023-03-10T07:04:23.598Z,13.00
2023-03-10T07:06:53.723Z,13.39
2023-03-10T07:09:23.798Z,13.08
2023-03-10T07:11:55.126Z,13.36
2023-03-10T07:14:27.217Z,13.17
2023-03-10T07:17:07.811Z,13.17
2023-03-10T07:19:40.696Z,13.17
2023-03-10T07:22:12.355Z,13.45
2023-03-10T07:24:46.140Z,13.42
2023-03-10T07:27:17.173Z,13.54
2023-03-10T07:29:50.699Z,13.49
2023-03-10T07:32:18.866Z,13.58
2023-03-10T07:34:53.989Z,13.36
2023-03-10T07:37:24.829Z,13.62
2023-03-10T07:39:56.690Z,13.19
2023-03-10T07:42:31.245Z,13.83
2023-03-10T07:44:59.733Z,13.47
2023-03-10T07:47:27.024Z,13.17
2023-03-10T07:49:55.195Z,13.69
2023-03-10T07:52:23.151Z,13.74
2023-03-10T07:54:55.265Z,13.70
2023-03-10T07:57:33.860Z,14.04
2023-03-10T08:00:01.189Z,13.89
2023-03-10T08:02:28.383Z,13.58
2023-03-10T08:04:55.650Z,13.37
2023-03-10T08:07:23.070Z,13.44
2023-03-10T08:09:54.676Z,13.05
2023-03-10T08:12:22.579Z,13.06
2023-03-10T08:14:51.269Z,13.39
2023-03-10T08:17:18.525Z,13.29
2023-03-10T08:19:45.966Z,13.26
2023-03-10T08:22:13.433Z,13.05
2023-03-10T08:24:40.597Z,12.86
2023-03-10T08:27:07.842Z,12.83
2023-03-10T08:29:35.342Z,12.93
2023-03-10T08:32:02.415Z,12.56
2023-03-10T08:34:34.557Z,12.64
2023-03-10T08:37:02.158Z,12.67
2023-03-10T08:39:29.956Z,12.69
2023-03-10T08:41:57.171Z,12.72
2023-03-10T08:44:26.865Z,12.83
2023-03-10T08:46:55.195Z,12.93
2023-03-10T08:49:23.074Z,12.90
2023-03-10T08:51:50.446Z,12.89
2023-03-10T08:54:20.943Z,12.74
2023-03-10T08:56:49.031Z,12.62
2023-03-10T08:59:16.293Z,12.98
2023-03-10T09:01:43.521Z,12.78
2023-03-10T09:04:11.142Z,13.04
2023-03-10T09:06:39.195Z,12.90
2023-03-10T09:09:10.451Z,12.69
2023-03-10T09:11:40.204Z,12.91
2023-03-10T09:14:08.570Z,12.77
2023-03-10T09:16:35.925Z,12.75
2023-03-10T09:19:04.145Z,12.67
2023-03-10T09:21:33.756Z,12.80
2023-03-10T09:24:02.508Z,12.76
2023-03-10T09:26:30.496Z,12.64
2023-03-10T09:28:57.806Z,12.62
2023-03-10T09:31:36.231Z,12.81
2023-03-10T09:34:04.123Z,12.97
2023-03-10T09:36:32.965Z,12.71
2023-03-10T09:39:01.354Z,12.68
2023-03-10T09:42:01.480Z,12.77
2023-03-10T09:44:58.104Z,13.13
2023-03-10T09:47:46.558Z,12.92
2023-03-10T09:50:26.162Z,12.84
2023-03-10T09:53:30.700Z,12.55
2023-03-10T09:55:58.456Z,12.56
2023-03-10T09:58:39.874Z,12.65
2023-03-10T10:01:18.171Z,12.53
2023-03-10T10:04:10.890Z,12.53
2023-03-10T10:06:43.164Z,13.01
2023-03-10T10:09:35.412Z,12.97
2023-03-10T10:12:32.161Z,13.01
2023-03-10T10:15:14.281Z,14.11
2023-03-10T10:18:02.872Z,13.72
2023-03-10T10:20:59.176Z,14.29
2023-03-10T10:23:49.114Z,14.09
2023-03-10T10:26:22.518Z,15.30
2023-03-10T10:29:14.024Z,14.37
2023-03-10T10:31:41.187Z,15.18
2023-03-10T10:34:23.039Z,15.30
2023-03-10T10:36:57.470Z,15.65
2023-03-10T10:39:43.681Z,15.61
2023-03-10T10:42:27.094Z,16.02
2023-03-10T10:44:59.642Z,16.61
2023-03-10T10:47:31.542Z,17.00
2023-03-10T10:50:29.223Z,17.59
2023-03-10T10:53:20.727Z,18.14
2023-03-10T10:56:14.408Z,16.84
2023-03-10T10:58:45.986Z,16.72
2023-03-10T11:01:17.279Z,16.71
2023-03-10T11:03:49.090Z,17.86
2023-03-10T11:06:22.220Z,16.82
2023-03-10T11:08:53.154Z,17.18
2023-03-10T11:11:33.905Z,17.24
2023-03-10T11:14:40.487Z,16.62
2023-03-10T11:17:29.908Z,18.10
2023-03-10T11:20:25.162Z,17.28
2023-03-10T11:23:34.116Z,17.31
2023-03-10T11:26:17.700Z,16.89
2023-03-10T11:29:21.360Z,17.67
2023-03-10T11:32:38.812Z,17.50
2023-03-10T11:35:31.837Z,18.10
2023-03-10T11:38:39.426Z,18.32
2023-03-10T11:41:27.068Z,17.85
2023-03-10T11:44:14.354Z,18.31
2023-03-10T11:47:28.178Z,17.36
2023-03-10T11:50:17.149Z,17.48
2023-03-10T11:52:47.021Z,17.94
2023-03-10T11:55:22.158Z,16.87
2023-03-10T11:57:59.433Z,16.46
2023-03-10T12:00:38.428Z,16.71
2023-03-10T12:03:55.944Z,17.05
2023-03-10T12:06:39.125Z,17.19
2023-03-10T12:09:15.850Z,15.76
2023-03-10T12:11:43.463Z,17.16
2023-03-10T12:14:14.762Z,17.41
2023-03-10T12:16:43.828Z,16.46
2023-03-10T12:19:11.099Z,16.66
2023-03-10T12:21:38.155Z,16.58
2023-03-10T12:24:06.540Z,17.55
2023-03-10T12:27:01.506Z,15.83
2023-03-10T12:29:39.776Z,15.52
2023-03-10T12:32:47.500Z,16.26
2023-03-10T12:35:48.196Z,16.32
2023-03-10T12:38:59.912Z,16.23
2023-03-10T12:41:27.068Z,15.56
2023-03-10T12:44:38.076Z,16.01
2023-03-10T12:47:30.847Z,15.39
2023-03-10T12:50:05.538Z,17.06
2023-03-10T12:52:41.568Z,16.59
2023-03-10T12:55:26.216Z,17.23
2023-03-10T12:57:56.140Z,15.60
2023-03-10T13:00:42.528Z,14.97
2023-03-10T13:03:09.469Z,14.91
2023-03-10T13:06:18.915Z,14.93
2023-03-10T13:09:10.165Z,14.39
2023-03-10T13:11:44.246Z,14.57
2023-03-10T13:14:17.151Z,14.75
2023-03-10T13:17:01.123Z,14.57
2023-03-10T13:19:35.268Z,15.08
2023-03-10T13:22:05.006Z,15.57
2023-03-10T13:24:37.472Z,16.45
2023-03-10T13:27:06.064Z,16.55
2023-03-10T13:29:34.227Z,17.53
2023-03-10T13:32:01.818Z,16.95
2023-03-10T13:34:32.776Z,16.24
2023-03-10T13:37:06.996Z,15.61
2023-03-10T13:39:34.389Z,17.35
2023-03-10T13:42:11.537Z,16.89
2023-03-10T13:44:42.440Z,17.75
2023-03-10T13:47:23.786Z,18.09
2023-03-10T13:50:00.137Z,18.36
2023-03-10T13:52:31.160Z,18.65
2023-03-10T13:55:16.399Z,16.10
2023-03-10T13:57:46.317Z,16.22
2023-03-10T14:00:22.193Z,18.19
2023-03-10T14:02:52.302Z,16.57
2023-03-10T14:05:41.111Z,16.30
2023-03-10T14:08:32.951Z,19.91
2023-03-10T14:11:32.906Z,16.14
2023-03-10T14:14:02.361Z,17.66
2023-03-10T14:16:54.555Z,15.85
2023-03-10T14:19:48.816Z,15.97
2023-03-10T14:22:35.446Z,15.61
2023-03-10T14:25:13.122Z,15.14
2023-03-10T14:27:44.721Z,14.66
2023-03-10T14:30:34.063Z,15.10
2023-03-10T14:33:02.275Z,15.16
2023-03-10T14:35:30.180Z,14.42
2023-03-10T14:37:57.589Z,14.87
2023-03-10T14:40:25.924Z,15.36
2023-03-10T14:42:56.185Z,14.72
2023-03-10T14:45:31.955Z,14.42
2023-03-10T14:48:02.817Z,14.58
2023-03-10T14:50:31.110Z,14.36
2023-03-10T14:52:58.391Z,14.72
2023-03-10T14:55:25.703Z,14.17
2023-03-10T14:58:00.419Z,14.36
2023-03-10T15:00:28.173Z,13.74
2023-03-10T15:02:55.487Z,14.27
2023-03-10T15:05:45.178Z,15.14
2023-03-10T15:08:15.660Z,15.15
2023-03-10T15:10:48.750Z,15.07
2023-03-10T15:13:19.990Z,15.69
2023-03-10T15:15:48.573Z,16.11
2023-03-10T15:18:20.025Z,15.11
2023-03-10T15:20:47.854Z,15.85
2023-03-10T15:23:18.851Z,17.61
2023-03-10T15:25:46.874Z,16.74
2023-03-10T15:28:14.443Z,16.73
2023-03-10T15:30:42.331Z,16.15
2023-03-10T15:33:10.928Z,17.09
2023-03-10T15:35:39.218Z,17.72
2023-03-10T15:38:07.173Z,18.66
2023-03-10T15:40:36.136Z,17.66
2023-03-10T15:43:03.485Z,16.54
2023-03-10T15:45:32.096Z,16.88
2023-03-10T15:47:59.898Z,16.09
2023-03-10T15:50:27.970Z,16.45
2023-03-10T15:52:58.007Z,15.94
2023-03-10T15:55:27.178Z,16.72
2023-03-10T15:57:56.209Z,15.65
2023-03-10T16:00:25.976Z,16.14
2023-03-10T16:02:54.926Z,15.34
2023-03-10T16:05:22.860Z,15.55
2023-03-10T16:07:50.847Z,15.79
2023-03-10T16:10:20.985Z,15.65
2023-03-10T16:12:48.355Z,15.85
2023-03-10T16:15:18.257Z,15.58
2023-03-10T16:17:45.959Z,16.49
2023-03-10T16:20:14.564Z,16.21
2023-03-10T16:22:43.251Z,16.01
2023-03-10T16:25:19.597Z,15.27
2023-03-10T16:27:48.611Z,16.02
2023-03-10T16:30:18.424Z,15.44
2023-03-10T16:32:50.416Z,15.98
2023-03-10T16:35:19.296Z,15.87
2023-03-10T16:37:46.541Z,16.06
2023-03-10T16:40:13.866Z,17.63
2023-03-10T16:42:45.706Z,15.80
2023-03-10T16:45:13.664Z,15.55
2023-03-10T16:47:41.275Z,15.35
2023-03-10T16:50:12.813Z,15.17
2023-03-10T16:52:42.691Z,15.57
2023-03-10T16:55:17.419Z,15.77
2023-03-10T16:57:46.093Z,15.64
2023-03-10T17:00:14.516Z,15.31
2023-03-10T17:02:41.659Z,15.42
2023-03-10T17:05:10.280Z,15.29
2023-03-10T17:07:53.321Z,15.42
2023-03-10T17:10:23.864Z,15.11
2023-03-10T17:12:52.296Z,14.86
2023-03-10T17:15:20.594Z,14.89
2023-03-10T17:17:47.760Z,14.82
2023-03-10T17:20:15.638Z,14.87
2023-03-10T17:22:42.845Z,14.82
2023-03-10T17:25:13.668Z,14.58
2023-03-10T17:27:42.480Z,14.72
2023-03-10T17:30:12.042Z,14.66
2023-03-10T17:32:39.179Z,14.74
2023-03-10T17:35:06.693Z,14.35
2023-03-10T17:37:33.821Z,14.42
2023-03-10T17:40:02.284Z,14.61
2023-03-10T17:42:30.773Z,13.51
2023-03-10T17:44:57.930Z,14.29
2023-03-10T17:47:25.168Z,14.21
2023-03-10T17:49:55.489Z,14.19
2023-03-10T17:52:22.636Z,14.02
2023-03-10T17:54:51.049Z,14.27
2023-03-10T17:57:18.196Z,14.18
2023-03-10T17:59:45.444Z,14.79
2023-03-10T18:02:13.311Z,13.75
2023-03-10T18:04:45.365Z,13.36
2023-03-10T18:07:13.697Z,14.58
2023-03-10T18:09:40.915Z,14.98
2023-03-10T18:12:09.621Z,15.77
2023-03-10T18:14:36.856Z,14.94
2023-03-10T18:17:04.116Z,14.64
2023-03-10T18:19:31.667Z,14.59
2023-03-10T18:21:59.964Z,15.13
2023-03-10T18:24:27.254Z,15.12
2023-03-10T18:26:56.201Z,14.99
2023-03-10T18:29:23.790Z,14.78
2023-03-10T18:31:51.061Z,14.68
2023-03-10T18:34:19.575Z,14.92
2023-03-10T18:36:46.978Z,13.56
2023-03-10T18:39:15.576Z,12.94
2023-03-10T18:41:42.782Z,13.02
2023-03-10T18:44:09.966Z,13.39
2023-03-10T18:46:37.392Z,14.12
2023-03-10T18:49:04.477Z,14.52
2023-03-10T18:51:32.263Z,13.09
2023-03-10T18:53:59.532Z,13.45
2023-03-10T18:56:29.212Z,13.14
2023-03-10T18:58:58.171Z,13.78
2023-03-10T19:01:50.297Z,13.69
2023-03-10T19:04:24.813Z,13.29
2023-03-10T19:06:52.968Z,12.22
2023-03-10T19:09:22.664Z,12.28
2023-03-10T19:11:52.439Z,12.35
2023-03-10T19:14:22.570Z,13.06
2023-03-10T19:16:52.850Z,13.98
2023-03-10T19:19:20.734Z,13.98
2023-03-10T19:21:54.191Z,14.45
2023-03-10T19:24:22.968Z,14.33
2023-03-10T19:26:51.309Z,14.16
2023-03-10T19:29:23.176Z,13.75
2023-03-10T19:31:53.836Z,14.07
2023-03-10T19:34:24.215Z,13.73
2023-03-10T19:36:53.952Z,13.82
2023-03-10T19:39:24.229Z,13.41
2023-03-10T19:41:51.623Z,13.95
2023-03-10T19:44:18.773Z,13.14
2023-03-10T19:46:45.960Z,11.63
2023-03-10T19:49:13.209Z,10.04
2023-03-10T19:51:40.396Z,12.07
2023-03-10T19:54:07.776Z,12.12
2023-03-10T19:56:35.138Z,13.15
2023-03-10T19:59:02.834Z,12.12
2023-03-10T20:01:30.381Z,12.88
2023-03-10T20:04:00.196Z,13.08
2023-03-10T20:06:28.666Z,13.24
2023-03-10T20:08:57.469Z,10.88
2023-03-10T20:11:24.759Z,12.82
2023-03-10T20:13:54.226Z,10.42
2023-03-10T20:16:24.313Z,11.73
2023-03-10T20:18:51.692Z,11.64
2023-03-10T20:21:18.890Z,12.87
2023-03-10T20:23:47.928Z,12.52
2023-03-10T20:26:16.490Z,13.40
2023-03-10T20:28:45.092Z,13.52
2023-03-10T20:31:22.865Z,13.29
2023-03-10T20:33:50.750Z,13.35
2023-03-10T20:36:18.556Z,13.03
2023-03-10T20:38:47.443Z,13.44
2023-03-10T20:41:17.892Z,13.85
2023-03-10T20:43:45.563Z,13.65
2023-03-10T20:46:13.697Z,13.38
2023-03-10T20:48:41.113Z,13.41
2023-03-10T20:51:08.172Z,13.78
2023-03-10T20:53:37.436Z,13.99
2023-03-10T20:56:10.233Z,14.22
2023-03-10T20:58:38.243Z,14.04
2023-03-10T21:01:05.610Z,14.29
2023-03-10T21:03:33.105Z,13.95
2023-03-10T21:06:00.112Z,14.16
2023-03-10T21:08:27.318Z,14.14
2023-03-10T21:10:54.411Z,14.19
2023-03-10T21:13:21.705Z,14.17
2023-03-10T21:15:48.925Z,13.64
2023-03-10T21:18:16.064Z,14.12
2023-03-10T21:20:43.209Z,14.16
2023-03-10T21:23:10.395Z,14.48
2023-03-10T21:25:37.665Z,13.91
2023-03-10T21:28:04.788Z,13.68
2023-03-10T21:30:33.763Z,14.29
2023-03-10T21:33:01.045Z,14.07
2023-03-10T21:35:32.030Z,13.14
2023-03-10T21:37:59.516Z,13.01
2023-03-10T21:40:29.016Z,13.02
2023-03-10T21:42:56.253Z,12.59
2023-03-10T21:45:24.739Z,13.40
2023-03-10T21:47:52.256Z,13.62
2023-03-10T21:50:19.668Z,13.47
2023-03-10T21:52:48.315Z,14.23
2023-03-10T21:55:23.206Z,14.14
2023-03-10T21:57:51.630Z,14.36
2023-03-10T22:00:23.213Z,14.42
2023-03-10T22:02:53.233Z,13.76
2023-03-10T22:05:21.271Z,13.85
2023-03-10T22:07:49.227Z,14.10
2023-03-10T22:10:18.548Z,14.18
2023-03-10T22:12:46.063Z,13.59
2023-03-10T22:15:18.636Z,13.70
2023-03-10T22:17:46.971Z,13.54
2023-03-10T22:20:18.741Z,13.61
2023-03-10T22:22:46.281Z,13.99
2023-03-10T22:25:14.947Z,13.67
2023-03-10T22:27:43.893Z,13.99
2023-03-10T22:30:14.141Z,13.44
2023-03-10T22:32:42.144Z,13.79
2023-03-10T22:35:10.223Z,13.26
2023-03-10T22:37:39.060Z,13.59
2023-03-10T22:40:10.342Z,13.64
2023-03-10T22:42:39.361Z,12.97
2023-03-10T22:45:17.940Z,13.77
2023-03-10T22:47:46.125Z,14.31
2023-03-10T22:50:26.286Z,13.95
2023-03-10T22:52:53.594Z,14.50
2023-03-10T22:55:25.863Z,14.73
2023-03-10T22:57:53.804Z,14.21
2023-03-10T23:00:22.800Z,13.50
2023-03-10T23:02:52.430Z,14.20
2023-03-10T23:05:21.682Z,14.46
2023-03-10T23:07:49.841Z,14.52
2023-03-10T23:10:25.151Z,14.75
2023-03-10T23:12:54.081Z,14.43
2023-03-10T23:15:29.670Z,14.96
2023-03-10T23:17:57.636Z,14.79
2023-03-10T23:20:29.151Z,14.90
2023-03-10T23:22:59.355Z,14.22
2023-03-10T23:25:42.914Z,14.72
2023-03-10T23:28:11.651Z,14.96
2023-03-10T23:30:42.055Z,14.24
2023-03-10T23:33:14.170Z,13.91
2023-03-10T23:35:41.690Z,14.25
2023-03-10T23:38:10.135Z,14.16
2023-03-10T23:40:46.306Z,14.47
2023-03-10T23:43:14.449Z,14.55
2023-03-10T23:45:41.979Z,14.33
2023-03-10T23:48:16.237Z,14.80
2023-03-10T23:50:45.995Z,13.68
2023-03-10T23:53:16.352Z,13.32
2023-03-10T23:55:46.946Z,13.88
2023-03-10T23:58:16.849Z,14.23
